Anderson, IN

11:18 AM EST on February 23, 2018 (GMT -0500)
South Edgewood Winding Way Station | | Change Station
Active Advisory: Flood Warning

Elev 869 ft 40.10 °N, 85.74 °W | Updated 12 seconds ago

Overcast
Overcast
54.9 °F
Feels Like 54.9 °F
N
0.7
Wind Variable Wind from WNW
Gusts 1.1 mph

Today
High -- | Low -- °F
--% Chance of Precip.
Yesterday
High -- | Low -- °F
Precip. -- in
Pressure 30.20 in
Visibility -9999.0 miles
Clouds Overcast 400 ft
Dew Point 54 °F
Humidity 97%
Rainfall 0.05 in
Snow Depth Not available.
7:25 AM 6:28 PM
First Quarter, 54% visible
METAR KAID 231550Z 26010G15KT 1 1/2-DZ OVC004 12/11 A3020
Pressure 30.20 in
Visibility -9999.0 miles
Clouds Overcast 400 ft
Dew Point 54 °F
Humidity 97%
Rainfall 0.05 in
Snow Depth Not available.
7:25 AM 6:28 PM
First Quarter, 54% visible
METAR KAID 231550Z 26010G15KT 1 1/2-DZ OVC004 12/11 A3020

Get Your Daily Forecast Email!

Thanks for signing up!

Be on the lookout for a verification email in your inbox.

You'll start receiving severe weather alerts in your inbox..

×

10-Day Weather Forecast

Almanac

Astronomy

Feb. 23, 2018 Rise Set
Actual Time
Civil Twilight
Nautical Twilight
Astronomical Twilight
Moon
Length of Visible Light
Length of Day
Tomorrow will be .
, % of the Moon is Illuminated

Today's Extremes

State Highs State Lows

Community

WunderPhotos

Category 6

Welcome to Category 6. This is the collective home for Weather Underground's featured writeups by Dr. Jeff Masters (right), Bob Henson (left), Chris Burt, and other regular contributors.

Nearby

Air Quality

  Air Quality AQ Index Pollutant
Not available.

Snow Depth

Station Depth Elevation

Earthquake Activity

City Distance Mag. Time & Date
Minimum magnitude displayed is 2.5.

Coastal Water Temperatures

Place Temperature

Stations

Nearby Weather Stations

Station Location Temp. Windchill Dew Point Humidity Wind Precip. Elev Updated Type
                   

Watches & Warnings

Flood Warning
Issued: 11:13 PM EST Feb. 22, 2018 – National Weather Service

The Flood Warning continues for
the White River at Anderson.
* From Sunday morning to late Monday night.
* At 10:30 PM Thursday the stage was 9.5 feet.
* Flood stage is 10.0 feet.
* Minor flooding is forecast.
* Forecast... the river will begin to drop overnight to 8.6 feet then
rise above flood stage Sunday morning, reaching 10.8 feet Sunday
evening.
* At 11.0 feet... flood waters inundate Edgewater Park. Water
approaches grand Avenue east of Broadway street bridge.


Lat... Lon 4009 8564 4013 8582 4011 8596 4013 8598
      4015 8585 4012 8565